Terminal Aerodrome Forecast
Issued by NWS St Louis, MO

Current Version | Previous Version | Text Only | Print | Product List | Glossary On
Versions: 1 2 3 4 5 6 7 8 9 10 11 12 13 14
609
FTUS43 KLSX 252320
TAFCOU
TAF
KCOU 252320Z 2600/2624 31010KT P6SM OVC050
      TEMPO 2602/2606 -SHRA
     FM260700 31006KT P6SM BKN120
     FM260900 31007KT P6SM SKC
     FM261600 31011G17KT P6SM SKC=

USA.gov is the U.S. government's official web portal to all federal, state and local government web resources and services.